| time (UTC) | temp F | wind direction | speed MPH | gust MPH | rain 1hr in | rain 24hr in | rain mn in | humidity % | barometer mb |
| 20260504100545 | 45 | 0 | 0.0 | 1.0 | 0.00 | 0.00 | 0.00 | 82 | 1004.9 |
| 20260504081549 | 48 | 202 | 4.0 | 6.0 | 0.00 | 0.00 | 0.00 | 82 | 1004.5 |
| 20260504081047 | 48 | 214 | 2.0 | 6.0 | 0.00 | 0.00 | 0.00 | 82 | 1004.5 |
| 20260504080547 | 48 | 201 | 2.0 | 6.0 | 0.00 | 0.00 | 0.00 | 81 | 1004.6 |
| 20260504050548 | 55 | 205 | 6.0 | 11.0 | 0.00 | 0.00 | 0.00 | 70 | 1006.0 |
| 20260504045548 | 54 | 198 | 4.0 | 8.0 | 0.00 | 0.00 | 0.00 | 71 | 1006.2 |
| 20260504045048 | 54 | 208 | 2.0 | 8.0 | 0.00 | 0.00 | 0.00 | 70 | 1006.2 |
| 20260504044555 | 54 | 230 | 3.0 | 8.0 | 0.00 | 0.00 | 0.00 | 70 | 1006.2 |
| 20260504044049 | 54 | 200 | 4.0 | 8.0 | 0.00 | 0.00 | 0.00 | 70 | 1006.2 |
| 20260504043548 | 54 | 222 | 3.0 | 9.0 | 0.00 | 0.00 | 0.00 | 69 | 1006.1 |
| 20260504043059 | 54 | 211 | 5.0 | 9.0 | 0.00 | 0.00 | 0.00 | 69 | 1006.1 |
| 20260504042548 | 54 | 198 | 5.0 | 9.0 | 0.00 | 0.00 | 0.00 | 68 | 1006.1 |
| 20260504042049 | 54 | 210 | 4.0 | 6.0 | 0.00 | 0.00 | 0.00 | 68 | 1006.1 |
| 20260504041555 | 54 | 192 | 3.0 | 5.0 | 0.00 | 0.00 | 0.00 | 68 | 1006.2 |
| 20260504041048 | 55 | 216 | 2.0 | 7.0 | 0.00 | 0.00 | 0.00 | 65 | 1006.3 |
| 20260504040547 | 56 | 232 | 3.0 | 9.0 | 0.00 | 0.00 | 0.00 | 65 | 1006.5 |
| 20260504040123 | 56 | 220 | 3.0 | 9.0 | 0.00 | 0.00 | 0.00 | 64 | 1006.4 |
| 20260504035548 | 56 | 200 | 4.0 | 7.0 | 0.00 | 0.00 | 0.00 | 64 | 1006.5 |
| 20260504035047 | 56 | 219 | 4.0 | 7.0 | 0.00 | 0.00 | 0.00 | 63 | 1006.5 |
| 20260504034600 | 56 | 217 | 3.0 | 7.0 | 0.00 | 0.00 | 0.00 | 63 | 1006.5 |
| 20260504034048 | 56 | 207 | 3.0 | 7.0 | 0.00 | 0.00 | 0.00 | 63 | 1006.4 |
| 20260504033548 | 57 | 204 | 4.0 | 8.0 | 0.00 | 0.00 | 0.00 | 62 | 1006.4 |
| 20260504033056 | 57 | 213 | 5.0 | 8.0 | 0.00 | 0.00 | 0.00 | 62 | 1006.5 |
| 20260504032548 | 57 | 225 | 4.0 | 9.0 | 0.00 | 0.00 | 0.00 | 61 | 1006.5 |
| 20260504032048 | 57 | 211 | 4.0 | 10.0 | 0.00 | 0.00 | 0.00 | 61 | 1006.5 |
| 20260504031625 | 58 | 211 | 4.0 | 10.0 | 0.00 | 0.00 | 0.00 | 61 | 1006.5 |
| 20260504031051 | 58 | 215 | 6.0 | 10.0 | 0.00 | 0.00 | 0.00 | 60 | 1006.5 |
| 20260504030547 | 58 | 197 | 5.0 | 10.0 | 0.00 | 0.00 | 0.00 | 60 | 1006.5 |
| 20260504030053 | 58 | 200 | 7.0 | 10.0 | 0.00 | 0.00 | 0.00 | 60 | 1006.5 |
| 20260504025549 | 58 | 218 | 6.0 | 9.0 | 0.00 | 0.00 | 0.00 | 60 | 1006.4 |
| 20260504025047 | 58 | 190 | 4.0 | 9.0 | 0.00 | 0.00 | 0.00 | 60 | 1006.5 |
| 20260504024555 | 59 | 213 | 4.0 | 10.0 | 0.00 | 0.00 | 0.00 | 58 | 1006.6 |
| 20260504024049 | 59 | 180 | 5.0 | 10.0 | 0.00 | 0.00 | 0.00 | 58 | 1006.6 |
| 20260504023548 | 59 | 205 | 5.0 | 7.0 | 0.00 | 0.00 | 0.00 | 58 | 1006.5 |
| 20260504023053 | 59 | 193 | 4.0 | 7.0 | 0.00 | 0.00 | 0.00 | 57 | 1006.5 |
| 20260504022548 | 60 | 207 | 3.0 | 8.0 | 0.00 | 0.00 | 0.00 | 56 | 1006.6 |
| 20260504022048 | 60 | 192 | 3.0 | 10.0 | 0.00 | 0.00 | 0.00 | 55 | 1006.6 |
| 20260504021554 | 61 | 221 | 5.0 | 10.0 | 0.00 | 0.00 | 0.00 | 54 | 1006.6 |
| 20260504021045 | 61 | 178 | 6.0 | 11.0 | 0.00 | 0.00 | 0.00 | 53 | 1006.6 |
| 20260504020548 | 62 | 191 | 7.0 | 11.0 | 0.00 | 0.00 | 0.00 | 51 | 1006.6 |
| 20260504020109 | 62 | 186 | 6.0 | 11.0 | 0.00 | 0.00 | 0.00 | 51 | 1006.7 |
| 20260504015552 | 62 | 230 | 6.0 | 11.0 | 0.00 | 0.00 | 0.00 | 50 | 1006.7 |
| 20260504015049 | 62 | 211 | 5.0 | 10.0 | 0.00 | 0.00 | 0.00 | 50 | 1006.7 |
| 20260504014554 | 63 | 198 | 5.0 | 10.0 | 0.00 | 0.00 | 0.00 | 49 | 1006.8 |
| 20260504014048 | 63 | 199 | 5.0 | 9.0 | 0.00 | 0.00 | 0.00 | 49 | 1006.8 |
| 20260504013547 | 64 | 201 | 6.0 | 10.0 | 0.00 | 0.00 | 0.00 | 47 | 1006.9 |
| 20260504013051 | 65 | 198 | 6.0 | 10.0 | 0.00 | 0.00 | 0.00 | 46 | 1006.8 |
| 20260504012549 | 65 | 215 | 5.0 | 11.0 | 0.00 | 0.00 | 0.00 | 46 | 1007.0 |
| 20260504012047 | 65 | 226 | 6.0 | 14.0 | 0.00 | 0.00 | 0.00 | 45 | 1007.0 |
| 20260504011550 | 66 | 208 | 6.0 | 17.0 | 0.00 | 0.00 | 0.00 | 45 | 1007.1 |
| 20260504011049 | 66 | 205 | 10.0 | 17.0 | 0.00 | 0.00 | 0.00 | 44 | 1007.1 |
| 20260504010548 | 66 | 202 | 8.0 | 13.0 | 0.00 | 0.00 | 0.00 | 44 | 1007.2 |
| 20260504010056 | 67 | 198 | 5.0 | 12.0 | 0.00 | 0.00 | 0.00 | 43 | 1007.3 |
| 20260504005548 | 67 | 218 | 6.0 | 12.0 | 0.00 | 0.00 | 0.00 | 42 | 1007.3 |
| 20260504005052 | 68 | 212 | 6.0 | 14.0 | 0.00 | 0.00 | 0.00 | 42 | 1007.4 |
| 20260504004553 | 68 | 217 | 6.0 | 14.0 | 0.00 | 0.00 | 0.00 | 43 | 1007.4 |
| 20260504004045 | 68 | 225 | 7.0 | 16.0 | 0.00 | 0.00 | 0.00 | 43 | 1007.5 |
| 20260504003547 | 68 | 204 | 7.0 | 16.0 | 0.00 | 0.00 | 0.00 | 42 | 1007.5 |
| 20260504003053 | 68 | 227 | 8.0 | 15.0 | 0.00 | 0.00 | 0.00 | 42 | 1007.5 |
| 20260504002547 | 68 | 224 | 9.0 | 14.0 | 0.00 | 0.00 | 0.00 | 42 | 1007.6 |
| 20260504002047 | 68 | 238 | 8.0 | 16.0 | 0.00 | 0.00 | 0.00 | 42 | 1007.6 |
| 20260504001555 | 69 | 209 | 8.0 | 16.0 | 0.00 | 0.00 | 0.00 | 41 | 1007.7 |
| 20260504001051 | 69 | 221 | 10.0 | 16.0 | 0.00 | 0.00 | 0.00 | 41 | 1007.7 |
| 20260504000549 | 69 | 206 | 11.0 | 16.0 | 0.00 | 0.00 | 0.00 | 40 | 1007.8 |
| 20260504000059 | 69 | 246 | 12.0 | 16.0 | 0.00 | 0.00 | 0.00 | 40 | 1008.0 |
| 20260503235549 | 69 | 236 | 11.0 | 19.0 | 0.00 | 0.00 | 0.00 | 39 | 1008.0 |
| 20260503235051 | 69 | 236 | 10.0 | 19.0 | 0.00 | 0.00 | 0.00 | 38 | 1008.0 |
| 20260503234623 | 70 | 243 | 8.0 | 19.0 | 0.00 | 0.00 | 0.00 | 37 | 1008.1 |
| 20260503234053 | 70 | 256 | 11.0 | 19.0 | 0.00 | 0.00 | 0.00 | 36 | 1008.2 |
| 20260503233548 | 70 | 247 | 13.0 | 19.0 | 0.00 | 0.00 | 0.00 | 37 | 1008.2 |
| 20260503233053 | 70 | 242 | 13.0 | 18.0 | 0.00 | 0.00 | 0.00 | 37 | 1008.3 |
| 20260503232547 | 70 | 258 | 11.0 | 15.0 | 0.00 | 0.00 | 0.00 | 35 | 1008.3 |
| 20260503232047 | 70 | 245 | 9.0 | 16.0 | 0.00 | 0.00 | 0.00 | 36 | 1008.3 |
| 20260503231553 | 69 | 247 | 11.0 | 16.0 | 0.00 | 0.00 | 0.00 | 36 | 1008.5 |
| 20260503231048 | 70 | 261 | 10.0 | 16.0 | 0.00 | 0.00 | 0.00 | 35 | 1008.5 |
| 20260503230548 | 70 | 259 | 6.0 | 12.0 | 0.00 | 0.00 | 0.00 | 36 | 1008.7 |
| 20260503230052 | 70 | 223 | 6.0 | 15.0 | 0.00 | 0.00 | 0.00 | 37 | 1008.7 |
| 20260503225547 | 69 | 236 | 11.0 | 15.0 | 0.00 | 0.00 | 0.00 | 37 | 1008.8 |
| 20260503225048 | 69 | 227 | 9.0 | 18.0 | 0.00 | 0.00 | 0.00 | 38 | 1008.8 |
| 20260503224550 | 68 | 232 | 11.0 | 18.0 | 0.00 | 0.00 | 0.00 | 39 | 1008.9 |
| 20260503224048 | 67 | 238 | 13.0 | 21.0 | 0.00 | 0.00 | 0.00 | 43 | 1009.0 |
| 20260503223547 | 65 | 252 | 14.0 | 22.0 | 0.00 | 0.00 | 0.00 | 48 | 1009.2 |
| 20260503223057 | 64 | 262 | 15.0 | 22.0 | 0.00 | 0.00 | 0.00 | 50 | 1009.4 |
| 20260503222552 | 63 | 242 | 17.0 | 31.0 | 0.00 | 0.00 | 0.00 | 54 | 1009.5 |
| 20260503222048 | 63 | 261 | 19.0 | 36.0 | 0.00 | 0.00 | 0.00 | 53 | 1009.7 |
| 20260503221559 | 63 | 258 | 19.0 | 36.0 | 0.00 | 0.00 | 0.00 | 51 | 1009.8 |
| 20260503221048 | 63 | 264 | 26.0 | 38.0 | 0.00 | 0.00 | 0.00 | 52 | 1010.1 |
| 20260503220548 | 62 | 255 | 20.0 | 38.0 | 0.00 | 0.00 | 0.00 | 54 | 1010.2 |
| 20260503220052 | 64 | 259 | 23.0 | 38.0 | 0.00 | 0.00 | 0.00 | 48 | 1010.1 |
| 20260503215548 | 70 | 268 | 12.0 | 20.0 | 0.00 | 0.00 | 0.00 | 37 | 1010.2 |
| 20260503215048 | 70 | 261 | 9.0 | 13.0 | 0.00 | 0.00 | 0.00 | 33 | 1009.8 |
| 20260503214552 | 70 | 295 | 4.0 | 12.0 | 0.00 | 0.00 | 0.00 | 34 | 1009.7 |
| 20260503214053 | 71 | 259 | 7.0 | 12.0 | 0.00 | 0.00 | 0.00 | 32 | 1009.7 |
| 20260503213547 | 71 | 269 | 6.0 | 13.0 | 0.00 | 0.00 | 0.00 | 31 | 1009.9 |
| 20260503213053 | 72 | 230 | 4.0 | 15.0 | 0.00 | 0.00 | 0.00 | 32 | 1009.9 |
| 20260503212548 | 72 | 259 | 9.0 | 15.0 | 0.00 | 0.00 | 0.00 | 30 | 1010.0 |
| 20260503212048 | 73 | 254 | 4.0 | 11.0 | 0.00 | 0.00 | 0.00 | 31 | 1010.1 |
| 20260503211559 | 73 | 278 | 2.0 | 8.0 | 0.00 | 0.00 | 0.00 | 32 | 1010.1 |
| 20260503211049 | 72 | 221 | 4.0 | 10.0 | 0.00 | 0.00 | 0.00 | 32 | 1010.1 |
| 20260503210547 | 72 | 204 | 3.0 | 10.0 | 0.00 | 0.00 | 0.00 | 31 | 1010.1 |
| 20260503210051 | 72 | 240 | 3.0 | 8.0 | 0.00 | 0.00 | 0.00 | 31 | 1010.2 |
| 20260503205550 | 71 | 202 | 1.0 | 5.0 | 0.00 | 0.00 | 0.00 | 31 | 1010.3 |
| 20260503205050 | 71 | 109 | 1.0 | 5.0 | 0.00 | 0.00 | 0.00 | 31 | 1010.4 |
| 20260503204559 | 70 | 42 | 2.0 | 11.0 | 0.00 | 0.00 | 0.00 | 31 | 1010.5 |
| 20260503204047 | 70 | 15 | 3.0 | 12.0 | 0.00 | 0.00 | 0.00 | 31 | 1010.6 |
| 20260503203547 | 70 | 304 | 6.0 | 14.0 | 0.00 | 0.00 | 0.00 | 33 | 1010.7 |
| 20260503203058 | 71 | 345 | 7.0 | 14.0 | 0.00 | 0.00 | 0.00 | 31 | 1010.8 |
| 20260503202544 | 70 | 296 | 9.0 | 14.0 | 0.00 | 0.00 | 0.00 | 31 | 1010.8 |
| 20260503202049 | 70 | 289 | 6.0 | 10.0 | 0.00 | 0.00 | 0.00 | 31 | 1011.0 |
| 20260503201554 | 70 | 336 | 5.0 | 12.0 | 0.00 | 0.00 | 0.00 | 32 | 1011.0 |
| 20260503201047 | 70 | 45 | 6.0 | 12.0 | 0.00 | 0.00 | 0.00 | 33 | 1011.1 |
| 20260503200548 | 70 | 334 | 4.0 | 10.0 | 0.00 | 0.00 | 0.00 | 31 | 1011.2 |
| 20260503200057 | 70 | 332 | 5.0 | 10.0 | 0.00 | 0.00 | 0.00 | 31 | 1011.3 |
| 20260503195551 | 71 | 24 | 1.0 | 12.0 | 0.00 | 0.00 | 0.00 | 32 | 1011.3 |
| 20260503195049 | 71 | 232 | 5.0 | 12.0 | 0.00 | 0.00 | 0.00 | 34 | 1011.4 |
| 20260503194604 | 71 | 242 | 7.0 | 13.0 | 0.00 | 0.00 | 0.00 | 32 | 1011.4 |
| 20260503194047 | 70 | 273 | 4.0 | 13.0 | 0.00 | 0.00 | 0.00 | 34 | 1011.4 |
| 20260503193548 | 70 | 13 | 5.0 | 10.0 | 0.00 | 0.00 | 0.00 | 31 | 1011.5 |
| 20260503193059 | 70 | 335 | 5.0 | 14.0 | 0.00 | 0.00 | 0.00 | 32 | 1011.6 |
| 20260503192546 | 70 | 172 | 3.0 | 14.0 | 0.00 | 0.00 | 0.00 | 32 | 1011.6 |
| 20260503192047 | 70 | 310 | 8.0 | 16.0 | 0.00 | 0.00 | 0.00 | 32 | 1011.7 |
| 20260503191555 | 70 | 313 | 6.0 | 16.0 | 0.00 | 0.00 | 0.00 | 33 | 1011.8 |
| 20260503191044 | 70 | 306 | 9.0 | 15.0 | 0.00 | 0.00 | 0.00 | 32 | 1011.8 |
| 20260503190544 | 70 | 317 | 7.0 | 14.0 | 0.00 | 0.00 | 0.00 | 32 | 1011.9 |
| 20260503190052 | 69 | 16 | 3.0 | 11.0 | 0.00 | 0.00 | 0.00 | 33 | 1012.0 |
| 20260503185544 | 69 | 30 | 6.0 | 11.0 | 0.00 | 0.00 | 0.00 | 32 | 1012.1 |
| 20260503185045 | 69 | 28 | 3.0 | 8.0 | 0.00 | 0.00 | 0.00 | 35 | 1012.1 |
| 20260503184551 | 69 | 11 | 3.0 | 10.0 | 0.00 | 0.00 | 0.00 | 35 | 1012.2 |
| 20260503184044 | 68 | 195 | 3.0 | 10.0 | 0.00 | 0.00 | 0.00 | 36 | 1012.2 |
| 20260503183547 | 68 | 89 | 2.0 | 10.0 | 0.00 | 0.00 | 0.00 | 35 | 1012.3 |
| 20260503183052 | 68 | 101 | 5.0 | 13.0 | 0.00 | 0.00 | 0.00 | 36 | 1012.4 |
| 20260503182544 | 68 | 104 | 5.0 | 13.0 | 0.00 | 0.00 | 0.00 | 35 | 1012.5 |
| 20260503182043 | 68 | 51 | 2.0 | 9.0 | 0.00 | 0.00 | 0.00 | 37 | 1012.7 |
| 20260503181550 | 68 | 351 | 2.0 | 9.0 | 0.00 | 0.00 | 0.00 | 37 | 1012.9 |
| 20260503181044 | 68 | 297 | 5.0 | 9.0 | 0.00 | 0.00 | 0.00 | 36 | 1013.0 |
| 20260503180547 | 68 | 29 | 1.0 | 7.0 | 0.00 | 0.00 | 0.00 | 37 | 1013.1 |
| 20260503180058 | 67 | 80 | 3.0 | 7.0 | 0.00 | 0.00 | 0.00 | 36 | 1013.2 |
| 20260503175545 | 67 | 205 | 1.0 | 7.0 | 0.00 | 0.00 | 0.00 | 37 | 1013.4 |
| 20260503175048 | 67 | 122 | 1.0 | 7.0 | 0.00 | 0.00 | 0.00 | 37 | 1013.5 |
| 20260503174549 | 67 | 270 | 2.0 | 11.0 | 0.00 | 0.00 | 0.00 | 40 | 1013.6 |
| 20260503174044 | 67 | 218 | 4.0 | 11.0 | 0.00 | 0.00 | 0.00 | 39 | 1013.7 |
| 20260503173544 | 66 | 0 | 1.0 | 10.0 | 0.00 | 0.00 | 0.00 | 39 | 1013.7 |
| 20260503173050 | 66 | 267 | 5.0 | 10.0 | 0.00 | 0.00 | 0.00 | 38 | 1013.8 |
| 20260503172543 | 66 | 212 | 2.0 | 8.0 | 0.00 | 0.00 | 0.00 | 39 | 1013.9 |
| 20260503172043 | 65 | 38 | 2.0 | 9.0 | 0.00 | 0.00 | 0.00 | 39 | 1014.1 |
| 20260503171552 | 65 | 239 | 5.0 | 9.0 | 0.00 | 0.00 | 0.00 | 39 | 1014.2 |
| 20260503171044 | 65 | 159 | 4.0 | 7.0 | 0.00 | 0.00 | 0.00 | 39 | 1014.1 |
| 20260503170544 | 65 | 0 | 2.0 | 8.0 | 0.00 | 0.00 | 0.00 | 41 | 1014.3 |
| 20260503150548 | 58 | 188 | 2.0 | 7.0 | 0.00 | 0.00 | 0.00 | 54 | 1015.1 |
| 20260503140110 | 54 | 28 | 2.0 | 9.0 | 0.00 | 0.00 | 0.00 | 61 | 1015.6 |
| 20260503131046 | 50 | 0 | 0.0 | 1.0 | 0.00 | 0.00 | 0.00 | 71 | 1015.7 |
| 20260503130552 | 50 | 0 | 0.0 | 4.0 | 0.00 | 0.00 | 0.00 | 70 | 1015.9 |
| 20260503110544 | 49 | 0 | 1.0 | 3.0 | 0.00 | 0.00 | 0.00 | 68 | 1015.4 |
| 20260503110108 | 49 | 0 | 0.0 | 5.0 | 0.00 | 0.00 | 0.00 | 68 | 1015.5 |